Time;durP1;ratioP1;P1;durP2;ratioP2;P2;SDS_P1;SDS_P2;PMS_P1;PMS_P2;Temp;Humidity;BMP_temperature;BMP_pressure;BME280_temperature;BME280_humidity;BME280_pressure;Samples;Min_cycle;Max_cycle;Signal;HPM_P1;HPM_P2
2021/10/06 00:01:19;;;;;;;15.58;10.65;;;;;;;12.92;100.00;98770.94;2118971;84;21088;-86
2021/10/06 00:04:20;;;;;;;13.58;8.55;;;;;;;12.90;100.00;98765.06;2119138;84;21503;-85
2021/10/06 00:07:21;;;;;;;10.08;7.83;;;;;;;12.89;100.00;98766.05;2119198;84;20980;-86
2021/10/06 00:10:22;;;;;;;16.82;9.18;;;;;;;12.88;100.00;98771.50;2118950;84;21013;-86
2021/10/06 00:13:24;;;;;;;14.20;9.55;;;;;;;12.87;100.00;98758.86;2118988;84;21551;-86
2021/10/06 00:27:19;;;;;;;13.83;9.80;;;;;;;12.78;100.00;98738.49;2124540;83;21703;-87
2021/10/06 00:30:20;;;;;;;10.30;8.58;;;;;;;12.76;100.00;98745.77;2133123;83;21020;-88
2021/10/06 00:33:20;;;;;;;16.25;8.88;;;;;;;12.74;100.00;98743.03;2132950;83;21642;-88
2021/10/06 00:36:21;;;;;;;15.83;10.13;;;;;;;12.73;100.00;98745.34;2132909;83;21033;-88
2021/10/06 00:39:22;;;;;;;13.75;8.65;;;;;;;12.73;100.00;98751.92;2133514;83;21611;-87
2021/10/06 00:42:23;;;;;;;11.68;8.13;;;;;;;12.69;100.00;98744.91;2132854;83;21089;-87
2021/10/06 00:45:24;;;;;;;16.00;10.20;;;;;;;12.70;100.00;98747.84;2133481;83;21017;-88
2021/10/06 00:48:24;;;;;;;14.73;9.20;;;;;;;12.71;100.00;98752.11;2111677;84;21099;-87
2021/10/06 00:51:25;;;;;;;12.68;9.05;;;;;;;12.70;100.00;98750.46;2111921;84;21040;-87
2021/10/06 00:54:26;;;;;;;12.30;8.75;;;;;;;12.71;100.00;98753.42;2111818;84;21534;-87
2021/10/06 00:57:27;;;;;;;14.53;9.98;;;;;;;12.73;100.00;98758.48;2111485;84;21079;-87
2021/10/06 01:00:28;;;;;;;12.37;9.75;;;;;;;12.74;100.00;98756.16;2112605;83;21632;-87
2021/10/06 01:03:29;;;;;;;12.53;7.80;;;;;;;12.76;100.00;98758.90;2111796;84;21079;-87
2021/10/06 01:06:29;;;;;;;12.65;9.03;;;;;;;12.79;100.00;98752.44;2111913;84;21068;-87
2021/10/06 01:09:30;;;;;;;12.13;9.40;;;;;;;12.82;100.00;98745.51;2111926;84;21031;-87
2021/10/06 01:12:31;;;;;;;9.33;7.65;;;;;;;12.84;100.00;98754.50;2111578;84;21016;-87
2021/10/06 01:15:32;;;;;;;15.48;8.55;;;;;;;12.84;100.00;98754.00;2111689;84;21573;-86
2021/10/06 01:18:33;;;;;;;11.85;8.78;;;;;;;12.84;100.00;98754.00;2111563;84;21123;-86
2021/10/06 01:21:33;;;;;;;13.13;8.63;;;;;;;12.85;100.00;98756.13;2111541;84;20989;-87
2021/10/06 01:24:34;;;;;;;17.65;10.05;;;;;;;12.85;100.00;98750.87;2111516;84;21135;-86
2021/10/06 01:27:35;;;;;;;11.25;9.13;;;;;;;12.84;100.00;98747.94;2109825;84;21079;-87
2021/10/06 01:30:36;;;;;;;12.07;8.30;;;;;;;12.83;100.00;98756.33;2110606;84;21558;-87
2021/10/06 01:33:37;;;;;;;13.78;7.50;;;;;;;12.82;100.00;98756.02;2111094;84;21040;-87
2021/10/06 01:36:38;;;;;;;12.93;9.28;;;;;;;12.83;100.00;98758.14;2111218;84;21063;-86
2021/10/06 01:39:39;;;;;;;12.45;8.38;;;;;;;12.82;100.00;98750.77;2111112;84;21026;-86
2021/10/06 01:42:39;;;;;;;13.13;8.93;;;;;;;12.80;100.00;98760.16;2111114;84;21063;-87
2021/10/06 01:45:40;;;;;;;11.30;8.13;;;;;;;12.79;100.00;98757.70;2111099;84;21028;-86
2021/10/06 01:48:41;;;;;;;11.53;8.28;;;;;;;12.77;100.00;98751.33;2111100;84;21535;-87
2021/10/06 01:51:42;;;;;;;12.07;8.85;;;;;;;12.75;100.00;98752.53;2111073;84;21042;-87
2021/10/06 01:54:43;;;;;;;11.93;8.78;;;;;;;12.73;100.00;98755.86;2133619;83;21061;-86
2021/10/06 01:57:43;;;;;;;12.68;8.93;;;;;;;12.70;100.00;98756.22;2133687;83;20946;-86
2021/10/06 02:00:44;;;;;;;12.98;8.60;;;;;;;12.66;100.00;98762.38;2133572;83;21171;-86
2021/10/06 02:03:45;;;;;;;10.80;7.87;;;;;;;12.63;100.00;98760.14;2133684;83;21017;-87
2021/10/06 02:06:46;;;;;;;9.43;7.85;;;;;;;12.61;100.00;98770.00;2133578;83;21067;-86
2021/10/06 02:09:47;;;;;;;8.93;8.03;;;;;;;12.59;100.00;98768.07;2112037;83;21551;-87
2021/10/06 02:12:48;;;;;;;10.70;7.33;;;;;;;12.56;100.00;98758.46;2133268;83;21012;-87
2021/10/06 02:15:48;;;;;;;11.68;7.97;;;;;;;12.49;100.00;98761.84;2133471;83;21119;-87
2021/10/06 02:18:49;;;;;;;10.93;8.35;;;;;;;12.47;100.00;98778.80;2133625;83;21464;-86
2021/10/06 02:21:50;;;;;;;12.55;7.80;;;;;;;12.44;100.00;98767.37;2133491;83;21012;-86
2021/10/06 02:24:51;;;;;;;11.75;8.68;;;;;;;12.43;100.00;98774.41;2133540;83;20929;-86
2021/10/06 02:27:52;;;;;;;13.55;9.35;;;;;;;12.44;100.00;98785.25;2133159;83;21104;-87
2021/10/06 02:30:52;;;;;;;14.07;8.05;;;;;;;12.45;100.00;98790.00;2133710;83;21114;-86
2021/10/06 02:33:53;;;;;;;10.28;7.92;;;;;;;12.42;100.00;98787.23;2133733;83;21505;-86
2021/10/06 02:36:54;;;;;;;17.70;9.15;;;;;;;12.39;100.00;98790.24;2133604;83;21024;-86
2021/10/06 02:39:55;;;;;;;8.75;7.78;;;;;;;12.38;100.00;98793.06;2133420;83;21045;-87
2021/10/06 02:42:56;;;;;;;13.22;8.78;;;;;;;12.35;100.00;98794.77;2133430;83;20997;-87
2021/10/06 02:45:56;;;;;;;10.15;8.30;;;;;;;12.36;100.00;98789.81;2133581;83;20980;-87
2021/10/06 02:48:57;;;;;;;10.30;8.48;;;;;;;12.37;100.00;98792.25;2133570;83;20965;-87
2021/10/06 02:51:58;;;;;;;9.50;8.38;;;;;;;12.39;100.00;98796.00;2133546;83;21551;-88
2021/10/06 02:54:59;;;;;;;9.23;8.23;;;;;;;12.38;100.00;98788.63;2133576;83;21076;-86
2021/10/06 02:58:00;;;;;;;12.23;9.13;;;;;;;12.38;100.00;98795.69;2133522;83;20980;-85
2021/10/06 03:01:00;;;;;;;11.15;7.70;;;;;;;12.38;100.00;98802.25;2133488;83;21548;-87
2021/10/06 03:04:01;;;;;;;9.28;7.75;;;;;;;12.38;100.00;98794.38;2133228;83;21040;-86
2021/10/06 03:07:02;;;;;;;12.50;8.65;;;;;;;12.38;100.00;98788.63;2133710;83;20985;-86
2021/10/06 03:10:03;;;;;;;15.70;9.05;;;;;;;12.40;100.00;98808.92;2133314;83;21057;-86
2021/10/06 03:13:04;;;;;;;9.08;8.03;;;;;;;12.42;100.00;98810.86;2133460;83;21535;-87
2021/10/06 03:16:04;;;;;;;13.62;8.43;;;;;;;12.42;100.00;98810.86;2133570;83;21047;-88
2021/10/06 03:19:05;;;;;;;11.40;9.48;;;;;;;12.43;100.00;98818.23;2133829;83;21496;-87
2021/10/06 03:22:06;;;;;;;12.88;9.38;;;;;;;12.45;100.00;98817.57;2133432;83;21063;-87
2021/10/06 03:25:07;;;;;;;11.05;7.40;;;;;;;12.45;100.00;98833.33;2133366;83;21003;-87
2021/10/06 03:28:08;;;;;;;14.23;8.15;;;;;;;12.43;100.00;98836.62;2143414;83;21012;-87
2021/10/06 03:31:08;;;;;;;11.15;7.85;;;;;;;12.42;100.00;98833.68;2146656;83;21055;-87
2021/10/06 03:34:09;;;;;;;12.65;8.28;;;;;;;12.42;100.00;98839.75;2146711;83;21115;-87
2021/10/06 03:37:10;;;;;;;10.68;8.40;;;;;;;12.42;100.00;98837.12;2146691;83;21016;-87
2021/10/06 03:40:11;;;;;;;13.62;8.18;;;;;;;12.43;100.00;98849.75;2146841;83;21527;-87
2021/10/06 03:43:12;;;;;;;9.53;7.45;;;;;;;12.45;100.00;98842.52;2146529;83;21075;-87
2021/10/06 03:46:13;;;;;;;9.50;7.83;;;;;;;12.46;100.00;98844.95;2146735;83;21076;-86
2021/10/06 03:49:14;;;;;;;11.35;8.80;;;;;;;12.47;100.00;98843.95;2147178;83;21562;-87
2021/10/06 03:52:15;;;;;;;13.43;8.33;;;;;;;12.48;100.00;98839.50;2146852;83;21062;-87
2021/10/06 03:55:15;;;;;;;15.48;8.83;;;;;;;12.47;100.00;98833.95;2147163;83;21037;-87
2021/10/06 03:58:17;;;;;;;12.68;8.35;;;;;;;12.45;100.00;98834.64;2147170;83;21095;-86
2021/10/06 04:01:18;;;;;;;12.88;8.58;;;;;;;12.43;100.00;98843.99;2147019;83;21000;-87
2021/10/06 04:04:19;;;;;;;11.20;7.85;;;;;;;12.41;100.00;98841.25;2146955;83;21479;-87
2021/10/06 04:07:20;;;;;;;12.75;9.30;;;;;;;12.38;100.00;98836.38;2146923;83;21000;-86
2021/10/06 04:10:21;;;;;;;9.98;8.55;;;;;;;12.33;100.00;98840.88;2147066;83;21020;-86
2021/10/06 04:13:22;;;;;;;12.43;7.75;;;;;;;12.27;100.00;98841.64;2147049;83;22183;-86
2021/10/06 04:16:22;;;;;;;11.53;10.20;;;;;;;12.23;100.00;98836.43;2147047;83;21023;-86
2021/10/06 04:19:23;;;;;;;8.78;7.87;;;;;;;12.17;100.00;98843.27;2147109;83;21539;-86
2021/10/06 04:22:24;;;;;;;15.93;9.85;;;;;;;12.16;100.00;98830.30;2147189;83;21063;-86
2021/10/06 04:25:25;;;;;;;9.75;8.35;;;;;;;12.11;100.00;98845.30;2146994;83;20984;-86
2021/10/06 04:28:29;;;;;;;11.60;8.38;;;;;;;12.08;100.00;98839.62;2146644;83;21104;-87
2021/10/06 04:31:30;;;;;;;19.17;11.60;;;;;;;12.05;100.00;98834.73;2146837;83;21381;-86
2021/10/06 04:34:31;;;;;;;12.35;8.83;;;;;;;12.04;100.00;98836.55;2146850;83;21523;-88
2021/10/06 04:37:31;;;;;;;14.58;9.95;;;;;;;12.04;100.00;98826.05;2147010;83;20972;-86
2021/10/06 04:40:32;;;;;;;14.55;10.05;;;;;;;12.03;100.00;98824.42;2147270;83;21035;-89
2021/10/06 04:43:33;;;;;;;10.93;8.93;;;;;;;12.01;100.00;98830.86;2147195;83;21021;-88
2021/10/06 04:46:34;;;;;;;14.05;9.05;;;;;;;11.99;100.00;98829.74;2127192;83;21040;-88
2021/10/06 04:49:35;;;;;;;12.78;8.50;;;;;;;11.99;100.00;98836.30;2147023;83;21056;-88
2021/10/06 04:52:35;;;;;;;9.85;8.58;;;;;;;11.99;100.00;98840.24;2146902;83;21048;-88
2021/10/06 04:55:37;;;;;;;8.80;7.40;;;;;;;11.99;100.00;98840.24;2147148;83;21120;-88
2021/10/06 04:58:38;;;;;;;12.60;10.23;;;;;;;12.00;100.00;98836.61;2147322;83;21020;-89
2021/10/06 05:01:39;;;;;;;14.78;9.65;;;;;;;12.01;100.00;98843.98;2147193;83;21028;-89
2021/10/06 05:04:40;;;;;;;11.48;8.53;;;;;;;12.00;100.00;98848.42;2147212;83;21096;-89
2021/10/06 05:07:40;;;;;;;13.25;8.30;;;;;;;11.98;100.00;98853.52;2147271;83;21076;-89
2021/10/06 05:10:41;;;;;;;9.28;8.38;;;;;;;11.97;100.00;98846.15;2147251;83;21408;-89
2021/10/06 05:13:42;;;;;;;11.30;9.23;;;;;;;11.95;100.00;98844.22;2147252;83;20996;-91
2021/10/06 05:16:43;;;;;;;13.65;9.45;;;;;;;11.95;100.00;98861.27;2147167;83;20980;-88
2021/10/06 05:19:44;;;;;;;10.70;9.55;;;;;;;11.94;100.00;98859.14;2147075;83;21008;-88
2021/10/06 05:22:45;;;;;;;9.25;7.72;;;;;;;11.91;100.00;98862.65;2147179;83;21016;-88
2021/10/06 05:25:45;;;;;;;8.85;7.95;;;;;;;11.88;100.00;98859.06;2147203;83;21016;-88
2021/10/06 05:28:46;;;;;;;9.65;8.28;;;;;;;11.88;100.00;98860.38;2147019;83;21087;-88
2021/10/06 05:31:47;;;;;;;9.78;7.97;;;;;;;11.88;100.00;98857.25;2147073;83;21003;-89
2021/10/06 05:34:48;;;;;;;13.62;7.78;;;;;;;11.91;100.00;98861.34;2147144;83;21016;-88
2021/10/06 05:37:49;;;;;;;10.48;7.28;;;;;;;11.92;100.00;98862.46;2146990;83;21495;-88
2021/10/06 05:40:50;;;;;;;10.55;7.83;;;;;;;11.97;100.00;98864.52;2147121;83;22098;-88
2021/10/06 05:43:50;;;;;;;9.25;7.58;;;;;;;12.06;100.00;98873.09;2146973;83;20984;-88
2021/10/06 05:46:53;;;;;;;8.28;7.12;;;;;;;12.06;100.00;98873.09;2146695;83;21032;-86
2021/10/06 05:49:54;;;;;;;11.65;6.60;;;;;;;12.10;100.00;98880.43;2147083;83;21638;-87
2021/10/06 05:52:55;;;;;;;12.45;7.28;;;;;;;12.15;100.00;98882.48;2146909;83;21116;-87
2021/10/06 05:55:56;;;;;;;9.60;7.40;;;;;;;12.22;100.00;98890.75;2147117;83;21072;-87
2021/10/06 05:58:57;;;;;;;8.45;6.75;;;;;;;12.30;100.00;98894.27;2147113;83;21008;-87
2021/10/06 06:01:58;;;;;;;11.83;7.85;;;;;;;12.35;100.00;98903.72;2147070;83;20980;-87
2021/10/06 06:04:59;;;;;;;9.65;6.40;;;;;;;12.42;100.00;98903.27;2146692;83;21068;-87
2021/10/06 06:08:00;;;;;;;8.33;7.35;;;;;;;12.48;100.00;98905.97;2147056;83;21364;-87
2021/10/06 06:11:01;;;;;;;8.95;6.85;;;;;;;12.56;100.00;98909.48;2146979;83;21531;-87
2021/10/06 06:14:01;;;;;;;8.50;7.33;;;;;;;12.62;100.00;98905.61;2147081;83;21545;-87
2021/10/06 06:17:02;;;;;;;8.90;6.62;;;;;;;12.66;100.00;98906.85;2147082;83;21047;-86
2021/10/06 06:20:03;;;;;;;10.90;6.33;;;;;;;12.67;100.00;98906.34;2147010;83;20968;-87
2021/10/06 06:23:04;;;;;;;8.73;7.28;;;;;;;12.71;100.00;98909.74;2146735;83;20995;-87
2021/10/06 06:26:05;;;;;;;15.03;7.62;;;;;;;12.75;100.00;98913.61;2146637;83;21118;-88
2021/10/06 06:29:06;;;;;;;9.50;7.03;;;;;;;12.79;100.00;98919.28;2136267;83;21028;-87
2021/10/06 06:32:06;;;;;;;9.80;6.95;;;;;;;12.78;100.00;98921.60;2133335;83;21096;-88
2021/10/06 06:35:07;;;;;;;9.13;7.10;;;;;;;12.75;100.00;98908.85;2133503;83;21493;-86
2021/10/06 06:38:08;;;;;;;9.78;7.47;;;;;;;12.83;100.00;98911.36;2133323;83;21554;-88
2021/10/06 06:41:09;;;;;;;11.05;9.23;;;;;;;12.90;100.00;98916.67;2133189;83;21344;-87
2021/10/06 06:44:10;;;;;;;8.70;7.45;;;;;;;12.97;100.00;98922.78;2133407;83;21077;-86
2021/10/06 06:47:11;;;;;;;10.10;8.08;;;;;;;13.01;100.00;98930.11;2133446;83;21017;-88
2021/10/06 06:50:12;;;;;;;10.03;6.85;;;;;;;13.03;100.00;98929.41;2133573;83;21060;-86
2021/10/06 06:53:13;;;;;;;9.63;7.47;;;;;;;13.05;100.00;98932.66;2133171;83;21088;-86
2021/10/06 06:56:14;;;;;;;9.75;6.87;;;;;;;13.05;100.00;98935.28;2133627;83;21064;-88
2021/10/06 06:59:15;;;;;;;8.48;7.03;;;;;;;13.06;100.00;98934.28;2133477;83;21089;-86
2021/10/06 07:02:16;;;;;;;12.03;8.50;;;;;;;13.06;100.00;98942.66;2133438;83;21120;-86
2021/10/06 07:05:18;;;;;;;7.72;6.45;;;;;;;13.05;100.00;98944.48;2133694;83;21535;-87
2021/10/06 07:08:20;;;;;;;8.53;7.05;;;;;;;13.07;100.00;98953.48;2133534;83;21564;-87
2021/10/06 07:11:21;;;;;;;8.55;7.17;;;;;;;13.10;100.00;98942.61;2133457;83;21112;-88
2021/10/06 07:14:22;;;;;;;9.55;7.35;;;;;;;13.14;100.00;98950.92;2133465;83;21026;-87
2021/10/06 07:17:27;;;;;;;8.95;7.28;;;;;;;13.15;100.00;98952.55;2133528;83;21128;-88
2021/10/06 07:20:27;;;;;;;8.40;7.00;;;;;;;13.15;100.00;98953.86;2133373;81;21089;-88
2021/10/06 07:23:28;;;;;;;8.98;7.90;;;;;;;13.21;100.00;98966.29;2133645;83;22178;-88
2021/10/06 07:26:29;;;;;;;12.60;8.18;;;;;;;13.25;100.00;98969.65;2133542;83;21028;-87
2021/10/06 07:29:30;;;;;;;10.75;6.60;;;;;;;13.28;100.00;98976.36;2133335;83;21148;-87
2021/10/06 07:32:31;;;;;;;8.00;7.00;;;;;;;13.34;100.00;98980.34;2133411;83;21056;-87
2021/10/06 07:35:33;;;;;;;12.15;6.90;;;;;;;13.35;100.00;98983.30;2133330;83;21579;-88
2021/10/06 07:38:34;;;;;;;10.78;7.45;;;;;;;13.40;100.00;98980.59;2133532;83;20989;-88
2021/10/06 07:41:35;;;;;;;7.65;6.28;;;;;;;13.46;100.00;98989.86;2133518;83;21032;-88
2021/10/06 07:44:36;;;;;;;9.25;7.53;;;;;;;13.54;100.00;98988.91;2134240;83;21603;-88
2021/10/06 07:47:37;;;;;;;10.72;7.78;;;;;;;13.55;100.00;98997.11;2133559;83;21041;-88
2021/10/06 07:50:39;;;;;;;8.88;6.87;;;;;;;13.54;100.00;98996.80;2133640;83;21063;-88
2021/10/06 07:53:40;;;;;;;7.47;6.42;;;;;;;13.48;100.00;98987.84;2133757;83;21044;-88
2021/10/06 07:56:41;;;;;;;10.90;7.65;;;;;;;13.58;100.00;99000.16;2133933;83;21520;-88
2021/10/06 07:59:42;;;;;;;17.87;9.70;;;;;;;13.62;100.00;99002.73;2133480;83;21007;-88
2021/10/06 08:02:43;;;;;;;14.07;10.20;;;;;;;13.64;100.00;99004.66;2133510;83;20957;-88
2021/10/06 08:05:44;;;;;;;17.37;11.45;;;;;;;13.64;100.00;98999.39;2133627;83;21043;-87
2021/10/06 08:08:46;;;;;;;14.75;10.63;;;;;;;13.64;100.00;98999.39;2133577;83;20961;-89
2021/10/06 08:11:46;;;;;;;20.95;10.38;;;;;;;13.65;100.00;99003.65;2133542;83;21635;-90
2021/10/06 08:14:48;;;;;;;17.15;10.43;;;;;;;13.63;100.00;99000.41;2132959;83;21057;-88
2021/10/06 08:17:49;;;;;;;18.37;10.58;;;;;;;13.59;100.00;99002.28;2132792;83;21060;-92
2021/10/06 08:20:50;;;;;;;12.23;11.03;;;;;;;13.54;100.00;99000.23;2133201;83;21135;-92
2021/10/06 08:23:51;;;;;;;13.38;9.25;;;;;;;13.55;100.00;99008.94;2133249;83;21583;-89
2021/10/06 08:26:51;;;;;;;11.40;8.30;;;;;;;13.56;100.00;99011.88;2133491;83;21016;-92
2021/10/06 08:29:53;;;;;;;9.10;8.20;;;;;;;13.59;100.00;99022.83;2133568;83;21060;-89
2021/10/06 08:32:54;;;;;;;12.10;8.88;;;;;;;13.61;100.00;99016.05;2133627;83;21543;-91
2021/10/06 08:35:55;;;;;;;13.20;10.55;;;;;;;13.62;100.00;99012.41;2133642;83;21040;-90
2021/10/06 08:38:56;;;;;;;12.25;9.53;;;;;;;13.62;100.00;99013.73;2134503;83;21056;-92
2021/10/06 08:41:57;;;;;;;12.25;9.58;;;;;;;13.63;100.00;99024.09;2133918;83;21073;-93
2021/10/06 08:44:58;;;;;;;12.53;8.53;;;;;;;13.70;100.00;99025.42;2133805;83;21079;-89
2021/10/06 08:48:00;;;;;;;13.45;9.73;;;;;;;13.73;100.00;99032.14;2112179;83;21124;-90
2021/10/06 08:51:01;;;;;;;9.68;8.68;;;;;;;13.77;100.00;99028.11;2133507;83;21079;-89
2021/10/06 08:54:02;;;;;;;10.65;8.28;;;;;;;13.79;100.00;99030.04;2133681;83;21080;-89
2021/10/06 08:57:03;;;;;;;16.00;9.68;;;;;;;13.86;100.00;99030.41;2133568;83;20973;-87
2021/10/06 09:00:05;;;;;;;13.35;9.05;;;;;;;13.91;100.00;99033.28;2133765;83;21587;-88
2021/10/06 09:03:06;;;;;;;10.35;8.35;;;;;;;13.98;100.00;99040.39;2133600;83;21020;-89
2021/10/06 09:06:07;;;;;;;18.57;8.88;;;;;;;13.98;100.00;99042.52;2133714;83;21571;-88
2021/10/06 09:09:08;;;;;;;11.65;8.50;;;;;;;13.98;100.00;99045.65;2133260;83;21563;-87
2021/10/06 09:12:09;;;;;;;11.97;7.95;;;;;;;14.02;100.00;99049.54;2133539;83;21492;-85
2021/10/06 09:15:10;;;;;;;14.95;8.25;;;;;;;14.14;100.00;99058.02;2133560;83;21524;-87
2021/10/06 09:18:12;;;;;;;13.55;8.48;;;;;;;14.20;100.00;99054.61;2133200;83;21075;-84
2021/10/06 09:45:37;;;;;;;13.85;10.13;;;;;;;13.92;100.00;99058.59;2236938;79;22204;-87
2021/10/06 09:48:38;;;;;;;13.15;8.98;;;;;;;13.92;100.00;99058.59;2188326;81;21358;-89
2021/10/06 09:51:39;;;;;;;18.25;10.58;;;;;;;13.98;100.00;99068.84;2188137;81;21033;-90
2021/10/06 09:54:40;;;;;;;16.77;9.83;;;;;;;14.02;100.00;99069.29;2188169;81;21032;-84
2021/10/06 09:57:42;;;;;;;10.48;9.45;;;;;;;14.07;100.00;99070.82;2188132;81;20973;-90
2021/10/06 10:00:43;;;;;;;15.63;9.20;;;;;;;14.08;100.00;99071.97;2188297;81;21044;-92
2021/10/06 10:03:44;;;;;;;13.05;9.58;;;;;;;14.13;100.00;99074.82;2188255;81;22198;-89
2021/10/06 10:06:45;;;;;;;11.08;8.30;;;;;;;14.17;100.00;99072.60;2188039;81;21504;-89
2021/10/06 10:09:46;;;;;;;9.85;8.23;;;;;;;14.22;100.00;99077.61;2188208;81;21017;-89
2021/10/06 10:12:48;;;;;;;11.55;8.83;;;;;;;14.26;100.00;99078.53;2187772;81;20938;-90
2021/10/06 10:15:50;;;;;;;12.15;9.73;;;;;;;14.30;100.00;99085.86;2187931;81;21061;-90
2021/10/06 10:18:51;;;;;;;13.90;9.45;;;;;;;14.31;100.00;99079.59;2187846;81;21037;-89
2021/10/06 10:21:52;;;;;;;17.05;11.95;;;;;;;14.35;100.00;99088.70;2188113;81;21560;-90
2021/10/06 10:24:54;;;;;;;16.35;11.05;;;;;;;14.41;100.00;99093.72;2188112;81;21041;-91
2021/10/06 10:27:55;;;;;;;21.50;15.32;;;;;;;14.45;100.00;99097.64;2188162;81;21041;-91
2021/10/06 10:31:02;;;;;;;16.55;12.70;;;;;;;14.55;100.00;99099.41;2188284;81;21016;-90
2021/10/06 10:34:13;;;;;;;16.75;11.12;;;;;;;14.69;100.00;99101.58;2185303;81;21128;-91
2021/10/06 10:40:34;;;;;;;21.52;16.00;;;;;;;15.07;100.00;99092.69;2187986;81;21049;-91
2021/10/06 10:43:35;;;;;;;17.32;13.25;;;;;;;15.22;100.00;99093.84;2168894;81;21091;-90
2021/10/06 10:49:57;;;;;;;20.00;13.08;;;;;;;15.35;100.00;99097.30;2188469;81;21077;-91
2021/10/06 10:52:58;;;;;;;18.87;12.80;;;;;;;15.38;100.00;99095.30;2188345;81;21017;-90
2021/10/06 10:56:00;;;;;;;14.70;12.10;;;;;;;15.40;100.00;99100.67;2188055;81;20938;-92
2021/10/06 10:59:01;;;;;;;13.78;11.95;;;;;;;15.42;100.00;99098.64;2187900;81;21061;-92
2021/10/06 11:02:02;;;;;;;12.33;10.98;;;;;;;15.35;100.00;99100.45;2187882;81;21069;-91
2021/10/06 11:05:04;;;;;;;12.95;10.23;;;;;;;15.42;100.00;99097.83;2187736;81;21081;-91
2021/10/06 11:08:05;;;;;;;16.93;10.28;;;;;;;15.43;100.00;99102.90;2187834;81;21527;-92
2021/10/06 11:11:07;;;;;;;12.18;9.28;;;;;;;15.44;100.00;99105.84;2187815;81;21005;-92
2021/10/06 11:14:08;;;;;;;14.38;11.33;;;;;;;15.42;100.00;99101.28;2187869;81;20990;-91
2021/10/06 11:17:10;;;;;;;12.82;10.43;;;;;;;15.50;100.00;99109.00;2187653;81;21049;-92
2021/10/06 11:20:11;;;;;;;20.55;12.07;;;;;;;15.61;100.00;99104.98;2187801;81;21012;-91
2021/10/06 11:23:13;;;;;;;15.50;12.25;;;;;;;15.67;100.00;99102.86;2187896;81;21077;-91
2021/10/06 11:26:14;;;;;;;13.78;10.28;;;;;;;15.74;100.00;99099.72;2187725;81;21034;-91
2021/10/06 11:29:15;;;;;;;13.72;9.33;;;;;;;15.77;100.00;99101.13;2187520;81;21084;-91
2021/10/06 11:32:17;;;;;;;12.28;9.68;;;;;;;15.74;100.00;99093.12;2188291;81;20961;-91
2021/10/06 11:35:18;;;;;;;13.55;10.35;;;;;;;15.80;100.00;99092.28;2187833;81;21100;-91
2021/10/06 11:38:19;;;;;;;14.33;10.23;;;;;;;15.82;100.00;99086.31;2187733;81;21036;-91
2021/10/06 11:41:22;;;;;;;13.85;11.70;;;;;;;15.80;100.00;99083.55;2187645;81;21121;-92
2021/10/06 11:44:24;;;;;;;13.35;9.90;;;;;;;15.78;100.00;99087.72;2187196;81;21564;-92
2021/10/06 11:47:25;;;;;;;13.68;10.40;;;;;;;15.76;100.00;99081.03;2187412;81;21097;-91
2021/10/06 11:50:27;;;;;;;15.85;11.40;;;;;;;15.79;100.00;99087.22;2187458;81;21550;-92
2021/10/06 11:53:29;;;;;;;12.13;10.25;;;;;;;15.82;100.00;99082.87;2187498;81;21067;-91
2021/10/06 11:56:30;;;;;;;14.78;11.25;;;;;;;15.80;100.00;99090.16;2187598;81;21071;-92
2021/10/06 11:59:31;;;;;;;13.80;10.35;;;;;;;15.80;100.00;99085.69;2187469;81;21523;-92
2021/10/06 12:02:33;;;;;;;13.47;9.77;;;;;;;15.83;100.00;99090.58;2187348;81;21065;-91
2021/10/06 12:05:34;;;;;;;16.07;13.95;;;;;;;15.86;100.00;99094.63;2187631;81;20950;-92
2021/10/06 12:08:36;;;;;;;15.20;13.13;;;;;;;15.88;100.00;99082.84;2187757;81;21016;-91
2021/10/06 12:11:37;;;;;;;17.05;13.10;;;;;;;15.95;100.00;99085.99;2187685;81;21508;-90
2021/10/06 12:14:39;;;;;;;16.02;13.00;;;;;;;15.99;100.00;99084.55;2187834;81;21016;-91
2021/10/06 12:17:41;;;;;;;19.15;14.53;;;;;;;16.04;100.00;99086.08;2187342;81;21048;-92
2021/10/06 12:20:43;;;;;;;19.10;15.65;;;;;;;16.07;100.00;99085.66;2187944;81;21533;-91
2021/10/06 12:23:44;;;;;;;22.90;14.70;;;;;;;16.11;100.00;99086.89;2187642;81;21356;-91
2021/10/06 12:26:47;;;;;;;18.77;13.05;;;;;;;16.17;100.00;99090.82;2187784;81;21030;-91
2021/10/06 12:29:48;;;;;;;13.35;11.65;;;;;;;16.22;100.00;99083.61;2187676;81;21486;-91
2021/10/06 12:32:50;;;;;;;17.92;13.08;;;;;;;16.26;100.00;99091.41;2187829;81;21050;-91
2021/10/06 12:35:52;;;;;;;14.38;12.23;;;;;;;16.32;100.00;99089.78;2187678;81;20973;-90
2021/10/06 12:38:53;;;;;;;19.60;14.85;;;;;;;16.33;100.00;99090.08;2187684;81;20978;-91
2021/10/06 12:41:55;;;;;;;17.95;13.68;;;;;;;16.36;100.00;99089.66;2187925;81;21479;-91
2021/10/06 12:44:56;;;;;;;13.05;11.68;;;;;;;16.43;100.00;99083.85;2187494;81;21013;-92
2021/10/06 12:47:57;;;;;;;15.55;12.82;;;;;;;16.53;100.00;99088.19;2187809;81;21004;-91
2021/10/06 12:50:58;;;;;;;15.25;11.97;;;;;;;16.45;100.00;99089.22;2187745;81;21543;-91
2021/10/06 12:53:59;;;;;;;13.20;11.05;;;;;;;16.38;100.00;99092.93;2187756;81;21053;-91
2021/10/06 12:57:00;;;;;;;13.93;10.78;;;;;;;16.30;100.00;99094.47;2187748;81;20973;-90
2021/10/06 13:00:04;;;;;;;13.75;11.12;;;;;;;16.25;100.00;99096.91;2187396;81;20976;-90
2021/10/06 13:03:05;;;;;;;14.55;10.45;;;;;;;16.18;100.00;99095.59;2189114;81;21681;-88
2021/10/06 13:06:06;;;;;;;16.07;9.85;;;;;;;16.12;100.00;99095.11;2189406;81;21457;-84
2021/10/06 13:09:07;;;;;;;18.65;12.23;;;;;;;16.09;100.00;99096.34;2187958;81;21044;-86
2021/10/06 13:12:08;;;;;;;13.80;9.95;;;;;;;16.03;100.00;99092.38;2188009;81;21288;-91
2021/10/06 13:15:09;;;;;;;16.85;12.73;;;;;;;16.02;100.00;99092.09;2187841;81;21070;-91
2021/10/06 13:18:10;;;;;;;13.83;10.68;;;;;;;16.05;100.00;99098.27;2187934;81;21026;-92
2021/10/06 13:21:11;;;;;;;12.40;10.00;;;;;;;16.06;100.00;99096.73;2188209;81;21066;-93
2021/10/06 13:24:12;;;;;;;13.90;9.23;;;;;;;16.07;100.00;99094.91;2188167;81;21013;-93
2021/10/06 13:27:15;;;;;;;14.13;12.20;;;;;;;16.01;100.00;99089.14;2188019;81;20957;-93
2021/10/06 13:30:16;;;;;;;21.90;13.05;;;;;;;15.99;100.00;99093.28;2187800;81;21571;-92
2021/10/06 13:33:17;;;;;;;21.60;12.03;;;;;;;15.96;100.00;99096.34;2187701;81;21052;-92
2021/10/06 13:36:18;;;;;;;20.92;12.63;;;;;;;15.95;100.00;99101.84;2187705;81;20982;-92
2021/10/06 13:39:19;;;;;;;13.80;10.82;;;;;;;15.91;100.00;99106.73;2187482;81;21024;-92
2021/10/06 13:42:23;;;;;;;16.37;11.75;;;;;;;15.89;100.00;99109.55;2187766;81;21445;-94
2021/10/06 13:45:25;;;;;;;16.50;11.28;;;;;;;15.88;100.00;99114.53;2091287;85;21165;-94
2021/10/06 13:48:26;;;;;;;14.43;9.58;;;;;;;15.86;100.00;99117.08;2089861;85;21534;-93
2021/10/06 13:51:27;;;;;;;12.10;9.25;;;;;;;15.84;100.00;99113.83;2090237;85;21088;-88
2021/10/06 13:54:28;;;;;;;10.28;8.55;;;;;;;15.83;100.00;99116.17;2089904;85;21029;-92
2021/10/06 13:57:29;;;;;;;18.20;10.20;;;;;;;15.82;100.00;99118.00;2090124;85;21021;-88
2021/10/06 14:00:31;;;;;;;12.35;9.73;;;;;;;15.83;100.00;99123.58;2089712;85;21068;-92
2021/10/06 14:03:32;;;;;;;15.30;11.20;;;;;;;15.82;100.00;99121.15;2090033;85;21025;-89
2021/10/06 14:06:33;;;;;;;14.60;11.18;;;;;;;15.77;100.00;99120.94;2089937;85;21084;-91
2021/10/06 14:09:34;;;;;;;17.67;11.18;;;;;;;15.67;100.00;99120.52;2089939;85;21519;-92
2021/10/06 14:12:37;;;;;;;10.72;9.13;;;;;;;15.59;100.00;99126.78;2087439;85;21072;-90
2021/10/06 14:15:38;;;;;;;13.25;10.10;;;;;;;15.51;100.00;99127.78;2089794;85;21080;-92
2021/10/06 14:18:39;;;;;;;13.43;10.05;;;;;;;15.45;100.00;99143.59;2089665;85;21599;-91
2021/10/06 14:21:40;;;;;;;16.23;11.00;;;;;;;15.30;100.00;99137.19;2089731;85;21060;-91
2021/10/06 14:24:42;;;;;;;17.77;11.12;;;;;;;15.23;99.29;99138.98;2089680;85;21556;-89
2021/10/06 14:27:43;;;;;;;15.40;11.63;;;;;;;15.19;99.81;99133.31;2089787;85;21048;-92
2021/10/06 14:30:44;;;;;;;17.42;11.38;;;;;;;15.13;100.00;99138.05;2089976;85;21591;-91
2021/10/06 14:33:45;;;;;;;12.93;10.88;;;;;;;15.08;99.66;99142.58;2090031;85;21051;-91